sensor_id;sensor_type;location;lat;lon;timestamp;pressure;altitude;pressure_sealevel;temperature;humidity
58018;BME280;43810;50.860;19.226;2023-04-27T00:00:51;98712.16;;;2.43;75.46
58018;BME280;43810;50.860;19.226;2023-04-27T00:03:17;98717.19;;;2.35;75.91
58018;BME280;43810;50.860;19.226;2023-04-27T00:05:42;98714.09;;;2.23;75.73
58018;BME280;43810;50.860;19.226;2023-04-27T00:08:08;98724.13;;;2.11;76.37
58018;BME280;43810;50.860;19.226;2023-04-27T00:10:34;98723.13;;;2.01;77.10
58018;BME280;43810;50.860;19.226;2023-04-27T00:13:00;98721.06;;;1.88;77.51
58018;BME280;43810;50.860;19.226;2023-04-27T00:15:27;98720.84;;;1.75;77.78
58018;BME280;43810;50.860;19.226;2023-04-27T00:17:53;98724.25;;;1.75;77.72
58018;BME280;43810;50.860;19.226;2023-04-27T00:20:19;98716.97;;;1.62;77.72
58018;BME280;43810;50.860;19.226;2023-04-27T00:22:45;98716.69;;;1.58;78.63
58018;BME280;43810;50.860;19.226;2023-04-27T00:25:11;98718.56;;;1.53;79.02
58018;BME280;43810;50.860;19.226;2023-04-27T00:27:37;98718.06;;;1.41;79.08
58018;BME280;43810;50.860;19.226;2023-04-27T00:30:03;98712.28;;;1.54;79.44
58018;BME280;43810;50.860;19.226;2023-04-27T00:32:30;98723.53;;;1.49;79.78
58018;BME280;43810;50.860;19.226;2023-04-27T00:34:55;98714.38;;;1.57;79.83
58018;BME280;43810;50.860;19.226;2023-04-27T00:37:21;98719.53;;;1.72;79.53
58018;BME280;43810;50.860;19.226;2023-04-27T00:39:47;98724.75;;;1.82;78.97
58018;BME280;43810;50.860;19.226;2023-04-27T00:42:13;98720.56;;;1.86;78.81
58018;BME280;43810;50.860;19.226;2023-04-27T00:44:41;98726.53;;;1.97;78.42
58018;BME280;43810;50.860;19.226;2023-04-27T00:47:09;98729.41;;;1.95;78.70
58018;BME280;43810;50.860;19.226;2023-04-27T00:49:35;98724.72;;;1.92;78.42
58018;BME280;43810;50.860;19.226;2023-04-27T00:52:01;98728.91;;;1.98;78.15
58018;BME280;43810;50.860;19.226;2023-04-27T00:54:28;98720.75;;;2.00;78.48
58018;BME280;43810;50.860;19.226;2023-04-27T00:56:54;98733.31;;;2.08;77.82
58018;BME280;43810;50.860;19.226;2023-04-27T00:59:20;98734.03;;;2.19;77.67
58018;BME280;43810;50.860;19.226;2023-04-27T01:01:46;98728.75;;;2.29;77.24
58018;BME280;43810;50.860;19.226;2023-04-27T01:04:13;98722.44;;;2.30;77.25
58018;BME280;43810;50.860;19.226;2023-04-27T01:06:39;98731.09;;;2.35;77.41
58018;BME280;43810;50.860;19.226;2023-04-27T01:09:05;98741.59;;;2.30;77.54
58018;BME280;43810;50.860;19.226;2023-04-27T01:11:32;98728.78;;;2.24;77.62
58018;BME280;43810;50.860;19.226;2023-04-27T01:14:02;98725.16;;;2.15;77.68
58018;BME280;43810;50.860;19.226;2023-04-27T01:16:28;98729.69;;;1.94;78.51
58018;BME280;43810;50.860;19.226;2023-04-27T01:18:54;98728.72;;;1.80;78.43
58018;BME280;43810;50.860;19.226;2023-04-27T01:21:20;98737.63;;;1.63;78.80
58018;BME280;43810;50.860;19.226;2023-04-27T01:23:46;98730.84;;;1.52;79.79
58018;BME280;43810;50.860;19.226;2023-04-27T01:26:12;98724.84;;;1.42;80.09
58018;BME280;43810;50.860;19.226;2023-04-27T01:28:41;98735.34;;;1.42;80.44
58018;BME280;43810;50.860;19.226;2023-04-27T01:31:09;98728.53;;;1.30;80.59
58018;BME280;43810;50.860;19.226;2023-04-27T01:33:35;98733.00;;;1.30;80.86
58018;BME280;43810;50.860;19.226;2023-04-27T01:36:02;98730.88;;;1.27;80.37
58018;BME280;43810;50.860;19.226;2023-04-27T01:38:27;98735.34;;;1.21;80.66
58018;BME280;43810;50.860;19.226;2023-04-27T01:40:53;98734.81;;;1.24;81.02
58018;BME280;43810;50.860;19.226;2023-04-27T01:43:27;98740.31;;;1.13;80.84
58018;BME280;43810;50.860;19.226;2023-04-27T01:45:53;98740.34;;;1.08;81.80
58018;BME280;43810;50.860;19.226;2023-04-27T01:48:18;98748.94;;;1.03;81.89
58018;BME280;43810;50.860;19.226;2023-04-27T01:50:44;98741.38;;;0.96;81.82
58018;BME280;43810;50.860;19.226;2023-04-27T01:53:10;98745.28;;;1.04;82.31
58018;BME280;43810;50.860;19.226;2023-04-27T01:55:36;98748.94;;;1.03;81.87
58018;BME280;43810;50.860;19.226;2023-04-27T01:58:02;98741.88;;;1.04;82.10
58018;BME280;43810;50.860;19.226;2023-04-27T02:00:28;98747.66;;;0.95;82.14
58018;BME280;43810;50.860;19.226;2023-04-27T02:02:53;98743.97;;;0.91;82.07
58018;BME280;43810;50.860;19.226;2023-04-27T02:05:25;98739.53;;;0.82;82.37
58018;BME280;43810;50.860;19.226;2023-04-27T02:07:50;98731.94;;;0.80;83.16
58018;BME280;43810;50.860;19.226;2023-04-27T02:10:17;98736.94;;;0.97;82.75
58018;BME280;43810;50.860;19.226;2023-04-27T02:12:42;98738.22;;;0.94;82.42
58018;BME280;43810;50.860;19.226;2023-04-27T02:15:08;98738.50;;;0.93;82.17
58018;BME280;43810;50.860;19.226;2023-04-27T02:17:34;98737.72;;;0.97;82.71
58018;BME280;43810;50.860;19.226;2023-04-27T02:20:00;98736.41;;;1.00;82.93
58018;BME280;43810;50.860;19.226;2023-04-27T02:22:26;98740.31;;;1.03;82.96
58018;BME280;43810;50.860;19.226;2023-04-27T02:24:52;98737.72;;;0.92;82.54
58018;BME280;43810;50.860;19.226;2023-04-27T02:27:18;98742.16;;;0.92;82.82
58018;BME280;43810;50.860;19.226;2023-04-27T02:29:44;98737.44;;;0.94;82.95
58018;BME280;43810;50.860;19.226;2023-04-27T02:32:09;98744.22;;;0.80;82.77
58018;BME280;43810;50.860;19.226;2023-04-27T02:34:35;98744.75;;;0.72;82.84
58018;BME280;43810;50.860;19.226;2023-04-27T02:37:01;98747.09;;;0.63;82.86
58018;BME280;43810;50.860;19.226;2023-04-27T02:39:27;98737.66;;;0.52;82.80
58018;BME280;43810;50.860;19.226;2023-04-27T02:41:52;98737.91;;;0.40;83.43
58018;BME280;43810;50.860;19.226;2023-04-27T02:44:19;98747.31;;;0.41;83.43
58018;BME280;43810;50.860;19.226;2023-04-27T02:46:44;98741.56;;;0.49;83.70
58018;BME280;43810;50.860;19.226;2023-04-27T02:49:10;98736.31;;;0.44;83.79
58018;BME280;43810;50.860;19.226;2023-04-27T02:51:36;98745.75;;;0.40;83.89
58018;BME280;43810;50.860;19.226;2023-04-27T02:54:02;98741.00;;;0.32;83.84
58018;BME280;43810;50.860;19.226;2023-04-27T02:56:28;98747.78;;;0.28;84.34
58018;BME280;43810;50.860;19.226;2023-04-27T02:58:54;98738.59;;;0.20;84.39
58018;BME280;43810;50.860;19.226;2023-04-27T03:01:20;98738.09;;;0.18;84.14
58018;BME280;43810;50.860;19.226;2023-04-27T03:03:46;98748.78;;;0.12;84.67
58018;BME280;43810;50.860;19.226;2023-04-27T03:06:12;98748.25;;;0.10;84.85
58018;BME280;43810;50.860;19.226;2023-04-27T03:08:38;98755.81;;;0.06;84.72
58018;BME280;43810;50.860;19.226;2023-04-27T03:11:04;98753.22;;;0.06;84.96
58018;BME280;43810;50.860;19.226;2023-04-27T03:13:30;98757.66;;;0.11;85.27
58018;BME280;43810;50.860;19.226;2023-04-27T03:16:00;98760.50;;;0.09;84.94
58018;BME280;43810;50.860;19.226;2023-04-27T03:18:26;98751.09;;;0.03;84.91
58018;BME280;43810;50.860;19.226;2023-04-27T03:20:52;98759.19;;;0.02;85.48
58018;BME280;43810;50.860;19.226;2023-04-27T03:23:17;98758.91;;;-0.02;85.86
58018;BME280;43810;50.860;19.226;2023-04-27T03:25:43;98757.59;;;0.01;85.81
58018;BME280;43810;50.860;19.226;2023-04-27T03:28:09;98763.34;;;-0.02;85.85
58018;BME280;43810;50.860;19.226;2023-04-27T03:30:38;98763.63;;;-0.04;85.93
58018;BME280;43810;50.860;19.226;2023-04-27T03:33:04;98756.56;;;0.02;86.11
58018;BME280;43810;50.860;19.226;2023-04-27T03:35:30;98759.19;;;0.02;85.99
58018;BME280;43810;50.860;19.226;2023-04-27T03:37:56;98761.75;;;-0.03;86.24
58018;BME280;43810;50.860;19.226;2023-04-27T03:40:21;98767.75;;;-0.08;86.21
58018;BME280;43810;50.860;19.226;2023-04-27T03:42:47;98771.44;;;-0.04;86.08
58018;BME280;43810;50.860;19.226;2023-04-27T03:45:13;98774.34;;;0.05;86.47
58018;BME280;43810;50.860;19.226;2023-04-27T03:47:41;98780.91;;;0.12;86.28
58018;BME280;43810;50.860;19.226;2023-04-27T03:50:07;98777.78;;;0.15;86.54
58018;BME280;43810;50.860;19.226;2023-04-27T03:52:33;98778.91;;;0.30;86.24
58018;BME280;43810;50.860;19.226;2023-04-27T03:54:58;98781.25;;;0.36;86.02
58018;BME280;43810;50.860;19.226;2023-04-27T03:57:24;98788.09;;;0.42;85.92
58018;BME280;43810;50.860;19.226;2023-04-27T03:59:50;98792.81;;;0.55;85.72
58018;BME280;43810;50.860;19.226;2023-04-27T04:02:16;98785.28;;;0.64;85.74
58018;BME280;43810;50.860;19.226;2023-04-27T04:04:42;98783.47;;;0.75;85.27
58018;BME280;43810;50.860;19.226;2023-04-27T04:07:08;98795.50;;;0.91;85.09
58018;BME280;43810;50.860;19.226;2023-04-27T04:09:33;98793.69;;;1.12;85.00
58018;BME280;43810;50.860;19.226;2023-04-27T04:11:59;98796.06;;;1.39;83.57
58018;BME280;43810;50.860;19.226;2023-04-27T04:14:26;98791.34;;;1.56;82.59
58018;BME280;43810;50.860;19.226;2023-04-27T04:16:53;98802.31;;;1.78;81.65
58018;BME280;43810;50.860;19.226;2023-04-27T04:19:18;98805.66;;;1.99;80.66
58018;BME280;43810;50.860;19.226;2023-04-27T04:21:44;98805.09;;;2.12;79.85
58018;BME280;43810;50.860;19.226;2023-04-27T04:24:10;98804.75;;;2.29;79.15
58018;BME280;43810;50.860;19.226;2023-04-27T04:26:36;98806.34;;;2.35;78.83
58018;BME280;43810;50.860;19.226;2023-04-27T04:29:03;98809.44;;;2.47;78.27
58018;BME280;43810;50.860;19.226;2023-04-27T04:31:29;98803.56;;;2.65;78.18
58018;BME280;43810;50.860;19.226;2023-04-27T04:33:55;98818.16;;;2.81;78.02
58018;BME280;43810;50.860;19.226;2023-04-27T04:36:21;98812.78;;;3.02;76.58
58018;BME280;43810;50.860;19.226;2023-04-27T04:38:47;98813.81;;;3.06;76.66
58018;BME280;43810;50.860;19.226;2023-04-27T04:41:13;98823.66;;;3.24;76.02
58018;BME280;43810;50.860;19.226;2023-04-27T04:43:38;98830.72;;;3.29;76.52
58018;BME280;43810;50.860;19.226;2023-04-27T04:46:04;98820.09;;;3.44;75.59
58018;BME280;43810;50.860;19.226;2023-04-27T04:48:30;98831.16;;;3.70;74.19
58018;BME280;43810;50.860;19.226;2023-04-27T04:50:57;98818.50;;;3.77;74.13
58018;BME280;43810;50.860;19.226;2023-04-27T04:53:22;98824.72;;;3.86;73.72
58018;BME280;43810;50.860;19.226;2023-04-27T04:55:48;98818.47;;;4.06;74.26
58018;BME280;43810;50.860;19.226;2023-04-27T04:58:14;98824.91;;;4.18;74.41
58018;BME280;43810;50.860;19.226;2023-04-27T05:00:40;98824.03;;;4.47;72.51
58018;BME280;43810;50.860;19.226;2023-04-27T05:03:06;98816.91;;;4.71;72.34
58018;BME280;43810;50.860;19.226;2023-04-27T05:05:34;98828.28;;;5.04;70.72
58018;BME280;43810;50.860;19.226;2023-04-27T05:08:00;98827.53;;;5.04;71.10
58018;BME280;43810;50.860;19.226;2023-04-27T05:10:26;98825.81;;;5.13;70.81
58018;BME280;43810;50.860;19.226;2023-04-27T05:12:51;98830.63;;;5.24;70.65
58018;BME280;43810;50.860;19.226;2023-04-27T05:15:18;98825.44;;;5.38;71.11
58018;BME280;43810;50.860;19.226;2023-04-27T05:17:43;98837.53;;;5.71;69.95
58018;BME280;43810;50.860;19.226;2023-04-27T05:20:09;98834.44;;;5.97;68.52
58018;BME280;43810;50.860;19.226;2023-04-27T05:22:35;98831.53;;;6.12;68.09
58018;BME280;43810;50.860;19.226;2023-04-27T05:25:02;98832.50;;;6.16;67.91
58018;BME280;43810;50.860;19.226;2023-04-27T05:27:28;98842.09;;;6.39;67.22
58018;BME280;43810;50.860;19.226;2023-04-27T05:29:54;98833.84;;;6.55;66.38
58018;BME280;43810;50.860;19.226;2023-04-27T05:32:20;98838.63;;;6.80;64.96
58018;BME280;43810;50.860;19.226;2023-04-27T05:34:46;98834.72;;;6.91;64.37
58018;BME280;43810;50.860;19.226;2023-04-27T05:37:11;98843.09;;;7.07;64.68
58018;BME280;43810;50.860;19.226;2023-04-27T05:39:38;98845.44;;;7.08;64.12
58018;BME280;43810;50.860;19.226;2023-04-27T05:42:04;98839.13;;;7.18;64.29
58018;BME280;43810;50.860;19.226;2023-04-27T05:44:29;98853.16;;;7.41;63.64
58018;BME280;43810;50.860;19.226;2023-04-27T05:46:55;98839.81;;;7.68;62.13
58018;BME280;43810;50.860;19.226;2023-04-27T05:49:22;98842.78;;;7.75;60.49
58018;BME280;43810;50.860;19.226;2023-04-27T05:51:47;98848.91;;;7.84;61.84
58018;BME280;43810;50.860;19.226;2023-04-27T05:54:13;98848.53;;;8.00;60.25
58018;BME280;43810;50.860;19.226;2023-04-27T05:56:39;98860.84;;;8.04;60.28
58018;BME280;43810;50.860;19.226;2023-04-27T05:59:05;98861.94;;;8.03;60.39
58018;BME280;43810;50.860;19.226;2023-04-27T06:01:31;98857.00;;;8.10;61.20
58018;BME280;43810;50.860;19.226;2023-04-27T06:03:59;98861.22;;;8.20;60.21
58018;BME280;43810;50.860;19.226;2023-04-27T06:06:26;98864.47;;;8.17;58.84
58018;BME280;43810;50.860;19.226;2023-04-27T06:08:53;98857.31;;;8.17;60.37
58018;BME280;43810;50.860;19.226;2023-04-27T06:11:18;98859.94;;;8.09;60.40
58018;BME280;43810;50.860;19.226;2023-04-27T06:13:44;98861.69;;;8.13;59.69
58018;BME280;43810;50.860;19.226;2023-04-27T06:16:10;98864.88;;;8.02;59.30
58018;BME280;43810;50.860;19.226;2023-04-27T06:18:36;98863.16;;;7.97;60.36
58018;BME280;43810;50.860;19.226;2023-04-27T06:21:02;98866.03;;;8.18;58.97
58018;BME280;43810;50.860;19.226;2023-04-27T06:23:28;98863.97;;;8.37;59.19
58018;BME280;43810;50.860;19.226;2023-04-27T06:25:54;98862.78;;;8.60;59.26
58018;BME280;43810;50.860;19.226;2023-04-27T06:28:20;98864.00;;;8.63;59.63
58018;BME280;43810;50.860;19.226;2023-04-27T06:30:46;98868.59;;;8.88;59.90
58018;BME280;43810;50.860;19.226;2023-04-27T06:33:12;98865.69;;;9.16;57.13
58018;BME280;43810;50.860;19.226;2023-04-27T06:35:38;98868.16;;;9.04;55.67
58018;BME280;43810;50.860;19.226;2023-04-27T06:38:04;98866.53;;;8.77;59.57
58018;BME280;43810;50.860;19.226;2023-04-27T06:40:29;98876.09;;;8.95;56.59
58018;BME280;43810;50.860;19.226;2023-04-27T06:42:55;98871.41;;;8.83;56.59
58018;BME280;43810;50.860;19.226;2023-04-27T06:45:21;98881.53;;;8.98;58.37
58018;BME280;43810;50.860;19.226;2023-04-27T06:47:47;98870.38;;;9.19;56.89
58018;BME280;43810;50.860;19.226;2023-04-27T06:50:13;98873.97;;;9.31;58.21
58018;BME280;43810;50.860;19.226;2023-04-27T06:52:40;98867.56;;;9.32;56.67
58018;BME280;43810;50.860;19.226;2023-04-27T06:55:06;98860.22;;;9.21;55.66
58018;BME280;43810;50.860;19.226;2023-04-27T06:57:32;98860.69;;;9.06;56.56
58018;BME280;43810;50.860;19.226;2023-04-27T06:59:58;98874.41;;;9.16;58.09
58018;BME280;43810;50.860;19.226;2023-04-27T07:02:24;98866.78;;;9.49;57.54
58018;BME280;43810;50.860;19.226;2023-04-27T07:04:50;98859.91;;;9.74;54.89
58018;BME280;43810;50.860;19.226;2023-04-27T07:07:16;98867.22;;;9.68;54.66
58018;BME280;43810;50.860;19.226;2023-04-27T07:09:42;98874.25;;;9.73;54.52
58018;BME280;43810;50.860;19.226;2023-04-27T07:12:08;98870.81;;;9.81;53.81
58018;BME280;43810;50.860;19.226;2023-04-27T07:14:34;98870.81;;;9.81;53.23
58018;BME280;43810;50.860;19.226;2023-04-27T07:17:00;98874.88;;;9.70;53.40
58018;BME280;43810;50.860;19.226;2023-04-27T07:19:26;98877.38;;;9.75;54.06
58018;BME280;43810;50.860;19.226;2023-04-27T07:21:52;98880.44;;;9.94;52.82
58018;BME280;43810;50.860;19.226;2023-04-27T07:24:17;98867.97;;;9.95;53.30
58018;BME280;43810;50.860;19.226;2023-04-27T07:26:43;98879.84;;;10.35;53.11
58018;BME280;43810;50.860;19.226;2023-04-27T07:29:09;98869.50;;;10.72;54.11
58018;BME280;43810;50.860;19.226;2023-04-27T07:31:37;98874.47;;;11.32;50.42
58018;BME280;43810;50.860;19.226;2023-04-27T07:34:03;98875.47;;;11.61;48.96
58018;BME280;43810;50.860;19.226;2023-04-27T07:36:29;98871.97;;;11.69;47.27
58018;BME280;43810;50.860;19.226;2023-04-27T07:38:56;98870.81;;;11.58;46.72
58018;BME280;43810;50.860;19.226;2023-04-27T07:41:23;98863.13;;;10.94;46.78
58018;BME280;43810;50.860;19.226;2023-04-27T07:43:49;98863.97;;;10.86;48.61
58018;BME280;43810;50.860;19.226;2023-04-27T07:46:16;98860.22;;;10.87;48.03
58018;BME280;43810;50.860;19.226;2023-04-27T07:48:43;98870.59;;;10.79;48.40
58018;BME280;43810;50.860;19.226;2023-04-27T07:51:09;98868.94;;;10.28;47.45
58018;BME280;43810;50.860;19.226;2023-04-27T07:53:36;98870.97;;;9.76;48.95
58018;BME280;43810;50.860;19.226;2023-04-27T07:56:04;98873.47;;;9.55;49.00
58018;BME280;43810;50.860;19.226;2023-04-27T07:58:30;98868.91;;;9.90;52.35
58018;BME280;43810;50.860;19.226;2023-04-27T08:00:56;98860.66;;;10.68;50.80
58018;BME280;43810;50.860;19.226;2023-04-27T08:03:22;98866.13;;;11.13;49.49
58018;BME280;43810;50.860;19.226;2023-04-27T08:05:48;98873.09;;;11.47;44.01
58018;BME280;43810;50.860;19.226;2023-04-27T08:08:13;98872.88;;;10.90;46.88
58018;BME280;43810;50.860;19.226;2023-04-27T08:10:39;98867.31;;;10.74;48.20
58018;BME280;43810;50.860;19.226;2023-04-27T08:13:07;98873.69;;;11.32;49.01
58018;BME280;43810;50.860;19.226;2023-04-27T08:15:35;98873.41;;;11.45;45.09
58018;BME280;43810;50.860;19.226;2023-04-27T08:18:01;98870.13;;;11.48;45.43
58018;BME280;43810;50.860;19.226;2023-04-27T08:20:27;98878.22;;;11.31;46.15
58018;BME280;43810;50.860;19.226;2023-04-27T08:22:52;98872.97;;;10.93;46.82
58018;BME280;43810;50.860;19.226;2023-04-27T08:25:18;98886.28;;;10.26;48.38
58018;BME280;43810;50.860;19.226;2023-04-27T08:27:44;98882.59;;;10.10;47.69
58018;BME280;43810;50.860;19.226;2023-04-27T08:30:10;98870.47;;;9.91;48.20
58018;BME280;43810;50.860;19.226;2023-04-27T08:32:36;98869.06;;;9.94;48.97
58018;BME280;43810;50.860;19.226;2023-04-27T08:35:02;98875.28;;;10.06;48.93
58018;BME280;43810;50.860;19.226;2023-04-27T08:37:28;98874.78;;;10.13;47.03
58018;BME280;43810;50.860;19.226;2023-04-27T08:39:54;98872.59;;;10.53;48.10
58018;BME280;43810;50.860;19.226;2023-04-27T08:42:20;98867.19;;;11.41;45.68
58018;BME280;43810;50.860;19.226;2023-04-27T08:44:46;98860.78;;;11.87;45.73
58018;BME280;43810;50.860;19.226;2023-04-27T08:47:12;98872.28;;;12.12;44.33
58018;BME280;43810;50.860;19.226;2023-04-27T08:49:38;98873.22;;;11.83;43.52
58018;BME280;43810;50.860;19.226;2023-04-27T08:52:13;98878.38;;;11.05;44.73
58018;BME280;43810;50.860;19.226;2023-04-27T08:54:39;98882.22;;;10.66;47.31
58018;BME280;43810;50.860;19.226;2023-04-27T08:57:12;98878.25;;;10.43;47.73
58018;BME280;43810;50.860;19.226;2023-04-27T08:59:39;98875.41;;;10.57;48.64
58018;BME280;43810;50.860;19.226;2023-04-27T09:02:05;98871.75;;;10.91;46.52
58018;BME280;43810;50.860;19.226;2023-04-27T09:04:38;98866.63;;;11.36;47.53
58018;BME280;43810;50.860;19.226;2023-04-27T09:09:37;98876.31;;;12.43;43.58
58018;BME280;43810;50.860;19.226;2023-04-27T09:14:41;98870.31;;;11.76;43.04
58018;BME280;43810;50.860;19.226;2023-04-27T09:17:07;98868.03;;;11.12;44.83
58018;BME280;43810;50.860;19.226;2023-04-27T09:19:33;98867.53;;;10.69;48.35
58018;BME280;43810;50.860;19.226;2023-04-27T09:22:06;98876.19;;;10.57;47.33
58018;BME280;43810;50.860;19.226;2023-04-27T09:24:35;98871.84;;;10.44;47.23
58018;BME280;43810;50.860;19.226;2023-04-27T09:27:02;98867.22;;;10.24;48.62
58018;BME280;43810;50.860;19.226;2023-04-27T09:29:37;98867.88;;;10.21;49.59
58018;BME280;43810;50.860;19.226;2023-04-27T09:32:23;98871.25;;;10.38;50.16
58018;BME280;43810;50.860;19.226;2023-04-27T09:34:49;98881.16;;;10.59;47.60
58018;BME280;43810;50.860;19.226;2023-04-27T09:37:15;98880.09;;;10.51;46.32
58018;BME280;43810;50.860;19.226;2023-04-27T09:39:42;98877.06;;;10.61;47.78
58018;BME280;43810;50.860;19.226;2023-04-27T09:42:07;98878.19;;;10.90;46.91
58018;BME280;43810;50.860;19.226;2023-04-27T09:44:34;98868.91;;;10.96;45.24
58018;BME280;43810;50.860;19.226;2023-04-27T09:47:03;98875.38;;;11.36;47.16
58018;BME280;43810;50.860;19.226;2023-04-27T09:49:32;98873.19;;;12.16;47.04
58018;BME280;43810;50.860;19.226;2023-04-27T09:51:58;98862.44;;;12.86;44.18
58018;BME280;43810;50.860;19.226;2023-04-27T09:54:29;98869.56;;;13.34;42.41
58018;BME280;43810;50.860;19.226;2023-04-27T09:57:02;98862.09;;;13.40;41.90
58018;BME280;43810;50.860;19.226;2023-04-27T10:02:41;98875.19;;;11.74;43.24
58018;BME280;43810;50.860;19.226;2023-04-27T10:07:53;98882.13;;;11.34;44.34
58018;BME280;43810;50.860;19.226;2023-04-27T10:10:20;98874.31;;;11.29;45.35
58018;BME280;43810;50.860;19.226;2023-04-27T10:12:56;98873.09;;;11.47;45.60
58018;BME280;43810;50.860;19.226;2023-04-27T10:15:28;98871.72;;;11.74;44.44
58018;BME280;43810;50.860;19.226;2023-04-27T10:17:54;98872.50;;;12.07;45.74
58018;BME280;43810;50.860;19.226;2023-04-27T10:20:31;98882.53;;;12.35;43.43
58018;BME280;43810;50.860;19.226;2023-04-27T10:23:00;98875.63;;;12.21;42.23
58018;BME280;43810;50.860;19.226;2023-04-27T10:25:29;98874.34;;;11.82;43.38
58018;BME280;43810;50.860;19.226;2023-04-27T10:28:01;98870.41;;;11.68;44.55
58018;BME280;43810;50.860;19.226;2023-04-27T10:30:38;98876.38;;;11.65;43.68
58018;BME280;43810;50.860;19.226;2023-04-27T10:33:15;98882.19;;;11.79;45.13
58018;BME280;43810;50.860;19.226;2023-04-27T10:35:43;98876.25;;;11.61;44.55
58018;BME280;43810;50.860;19.226;2023-04-27T10:38:17;98874.31;;;11.29;45.09
58018;BME280;43810;50.860;19.226;2023-04-27T10:40:52;98876.09;;;10.95;45.15
58018;BME280;43810;50.860;19.226;2023-04-27T10:43:23;98880.38;;;10.88;47.67
58018;BME280;43810;50.860;19.226;2023-04-27T10:45:49;98888.78;;;10.69;46.98
58018;BME280;43810;50.860;19.226;2023-04-27T10:48:15;98882.91;;;10.55;47.99
58018;BME280;43810;50.860;19.226;2023-04-27T10:50:42;98890.84;;;10.17;46.77
58018;BME280;43810;50.860;19.226;2023-04-27T10:53:09;98883.75;;;9.83;46.02
58018;BME280;43810;50.860;19.226;2023-04-27T10:55:35;98888.00;;;9.58;47.09
58018;BME280;43810;50.860;19.226;2023-04-27T10:58:01;98898.00;;;9.52;46.01
58018;BME280;43810;50.860;19.226;2023-04-27T11:00:37;98895.50;;;9.39;44.43
58018;BME280;43810;50.860;19.226;2023-04-27T11:03:20;98896.28;;;9.48;44.35
58018;BME280;43810;50.860;19.226;2023-04-27T11:05:49;98901.13;;;9.63;42.81
58018;BME280;43810;50.860;19.226;2023-04-27T11:08:23;98884.47;;;10.00;44.93
58018;BME280;43810;50.860;19.226;2023-04-27T11:10:49;98888.22;;;10.46;45.87
58018;BME280;43810;50.860;19.226;2023-04-27T11:13:18;98909.22;;;10.77;46.05
58018;BME280;43810;50.860;19.226;2023-04-27T11:15:58;98887.28;;;11.09;45.96
58018;BME280;43810;50.860;19.226;2023-04-27T11:18:26;98900.25;;;11.52;46.07
58018;BME280;43810;50.860;19.226;2023-04-27T11:21:08;98902.94;;;12.18;42.16
58018;BME280;43810;50.860;19.226;2023-04-27T11:23:34;98894.97;;;12.55;42.41
58018;BME280;43810;50.860;19.226;2023-04-27T11:26:16;98894.19;;;12.91;41.56
58018;BME280;43810;50.860;19.226;2023-04-27T11:28:44;98902.53;;;12.89;38.61
58018;BME280;43810;50.860;19.226;2023-04-27T11:31:13;98896.84;;;12.67;39.97
58018;BME280;43810;50.860;19.226;2023-04-27T11:33:47;98901.63;;;12.61;40.59
58018;BME280;43810;50.860;19.226;2023-04-27T11:36:17;98899.31;;;12.47;42.23
58018;BME280;43810;50.860;19.226;2023-04-27T11:38:46;98892.84;;;12.24;42.11
58018;BME280;43810;50.860;19.226;2023-04-27T11:41:12;98898.06;;;12.33;39.44
58018;BME280;43810;50.860;19.226;2023-04-27T11:43:42;98900.06;;;12.36;40.87
58018;BME280;43810;50.860;19.226;2023-04-27T11:46:10;98892.72;;;12.33;40.25
58018;BME280;43810;50.860;19.226;2023-04-27T11:48:37;98889.91;;;12.05;42.24
58018;BME280;43810;50.860;19.226;2023-04-27T11:51:05;98902.19;;;11.97;44.50
58018;BME280;43810;50.860;19.226;2023-04-27T11:53:37;98895.69;;;11.74;42.82
58018;BME280;43810;50.860;19.226;2023-04-27T11:56:05;98899.16;;;11.53;43.98
58018;BME280;43810;50.860;19.226;2023-04-27T11:58:33;98894.97;;;11.32;44.14
58018;BME280;43810;50.860;19.226;2023-04-27T12:01:00;98900.53;;;11.18;44.70
58018;BME280;43810;50.860;19.226;2023-04-27T12:03:27;98907.09;;;11.21;45.62
58018;BME280;43810;50.860;19.226;2023-04-27T12:05:53;98905.72;;;11.14;44.05
58018;BME280;43810;50.860;19.226;2023-04-27T12:08:19;98900.28;;;11.32;41.56
58018;BME280;43810;50.860;19.226;2023-04-27T12:10:46;98893.75;;;11.62;43.69
58018;BME280;43810;50.860;19.226;2023-04-27T12:13:12;98899.00;;;12.04;39.27
58018;BME280;43810;50.860;19.226;2023-04-27T12:15:40;98891.84;;;12.16;41.08
58018;BME280;43810;50.860;19.226;2023-04-27T12:18:07;98890.97;;;12.61;42.51
58018;BME280;43810;50.860;19.226;2023-04-27T12:20:36;98881.75;;;12.95;41.63
58018;BME280;43810;50.860;19.226;2023-04-27T12:23:02;98888.88;;;12.91;39.05
58018;BME280;43810;50.860;19.226;2023-04-27T12:25:28;98894.19;;;12.42;39.77
58018;BME280;43810;50.860;19.226;2023-04-27T12:27:54;98890.72;;;12.17;41.11
58018;BME280;43810;50.860;19.226;2023-04-27T12:30:22;98890.78;;;12.09;41.28
58018;BME280;43810;50.860;19.226;2023-04-27T12:32:47;98894.16;;;11.73;41.01
58018;BME280;43810;50.860;19.226;2023-04-27T12:35:16;98893.13;;;11.44;42.13
58018;BME280;43810;50.860;19.226;2023-04-27T12:37:44;98892.56;;;11.18;42.29
58018;BME280;43810;50.860;19.226;2023-04-27T12:40:12;98894.81;;;10.78;46.59
58018;BME280;43810;50.860;19.226;2023-04-27T12:42:44;98896.84;;;10.43;48.59
58018;BME280;43810;50.860;19.226;2023-04-27T12:45:10;98903.31;;;10.33;50.76
58018;BME280;43810;50.860;19.226;2023-04-27T12:47:36;98904.88;;;10.64;49.39
58018;BME280;43810;50.860;19.226;2023-04-27T12:50:02;98901.97;;;10.86;50.46
58018;BME280;43810;50.860;19.226;2023-04-27T12:52:28;98900.75;;;11.04;47.22
58018;BME280;43810;50.860;19.226;2023-04-27T12:54:54;98900.88;;;11.08;49.60
58018;BME280;43810;50.860;19.226;2023-04-27T12:57:26;98901.44;;;10.93;46.65
58018;BME280;43810;50.860;19.226;2023-04-27T12:59:52;98909.06;;;10.73;46.76
58018;BME280;43810;50.860;19.226;2023-04-27T13:02:18;98903.16;;;10.68;47.40
58018;BME280;43810;50.860;19.226;2023-04-27T13:04:44;98912.66;;;10.77;47.15